Time;durP1;ratioP1;P1;durP2;ratioP2;P2;SDS_P1;SDS_P2;PMS_P1;PMS_P2;Temp;Humidity;BMP_temperature;BMP_pressure;BME280_temperature;BME280_humidity;BME280_pressure;Samples;Min_cycle;Max_cycle;Signal;HPM_P1;HPM_P2
2023/03/31 00:01:09;;;;;;;9.40;3.72;;;;;;;;;;4987255;28;20045;-60
2023/03/31 00:03:37;;;;;;;8.25;4.05;;;;;;;;;;4985101;28;20046;-60
2023/03/31 00:06:04;;;;;;;8.25;3.53;;;;;;;;;;4972337;28;20609;-62
2023/03/31 00:08:34;;;;;;;11.23;4.05;;;;;;;;;;4986593;28;20049;-59
2023/03/31 00:11:01;;;;;;;8.00;3.55;;;;;;;;;;4986999;28;20424;-61
2023/03/31 00:13:29;;;;;;;7.15;3.97;;;;;;;;;;4986309;28;20042;-61
2023/03/31 00:16:00;;;;;;;7.20;4.18;;;;;;;;;;4986183;28;20038;-62
2023/03/31 00:18:28;;;;;;;8.20;4.10;;;;;;;;;;4985377;28;20053;-60
2023/03/31 00:20:56;;;;;;;8.15;3.83;;;;;;;;;;4986908;28;20062;-61
2023/03/31 00:23:26;;;;;;;8.13;3.70;;;;;;;;;;4986191;28;20096;-64
2023/03/31 00:25:54;;;;;;;7.72;3.60;;;;;;;;;;4987160;28;20050;-62
2023/03/31 00:28:21;;;;;;;8.60;4.05;;;;;;;;;;4985341;28;20492;-60
2023/03/31 00:30:48;;;;;;;7.85;3.20;;;;;;;;;;4986352;28;20045;-63
2023/03/31 00:33:15;;;;;;;11.05;4.20;;;;;;;;;;4989608;28;20109;-61
2023/03/31 00:35:42;;;;;;;8.07;3.15;;;;;;;;;;4986782;28;20539;-61
2023/03/31 00:38:12;;;;;;;7.63;3.65;;;;;;;;;;4985829;28;20050;-62
2023/03/31 00:40:45;;;;;;;7.10;3.55;;;;;;;;;;4984687;28;20050;-64
2023/03/31 00:43:24;;;;;;;8.18;3.75;;;;;;;;;;4976038;28;20606;-62
2023/03/31 00:45:51;;;;;;;7.18;3.97;;;;;;;;;;4987826;28;21888;-63
2023/03/31 00:48:19;;;;;;;9.20;3.45;;;;;;;;;;4986748;28;20486;-61
2023/03/31 00:50:52;;;;;;;7.07;3.10;;;;;;;;;;4985974;28;20769;-62
2023/03/31 00:53:22;;;;;;;5.97;3.22;;;;;;;;;;4985598;28;20038;-62
2023/03/31 00:55:51;;;;;;;6.70;3.65;;;;;;;;;;4968439;28;20076;-61
2023/03/31 00:58:19;;;;;;;7.75;3.63;;;;;;;;;;4985051;28;20099;-63
2023/03/31 01:00:50;;;;;;;8.60;3.28;;;;;;;;;;4985912;28;20433;-64
2023/03/31 01:03:17;;;;;;;6.53;3.33;;;;;;;;;;4986950;28;20540;-62
2023/03/31 01:05:52;;;;;;;9.88;3.58;;;;;;;;;;4985234;28;20042;-62
2023/03/31 01:08:23;;;;;;;7.97;3.60;;;;;;;;;;4985798;28;20129;-61
2023/03/31 01:10:53;;;;;;;6.85;3.47;;;;;;;;;;4984945;28;20060;-63
2023/03/31 01:13:21;;;;;;;10.18;4.05;;;;;;;;;;4985863;28;20505;-61
2023/03/31 01:15:48;;;;;;;8.20;3.65;;;;;;;;;;4986325;28;20042;-63
2023/03/31 01:18:19;;;;;;;7.90;3.65;;;;;;;;;;4986412;28;20121;-61
2023/03/31 01:20:58;;;;;;;9.32;3.63;;;;;;;;;;4984006;28;20118;-62
2023/03/31 01:23:33;;;;;;;7.22;3.13;;;;;;;;;;4986373;28;20282;-60
2023/03/31 01:26:03;;;;;;;10.27;3.58;;;;;;;;;;4985774;28;20486;-62
2023/03/31 01:28:48;;;;;;;5.65;2.90;;;;;;;;;;4986588;28;20109;-63
2023/03/31 01:31:41;;;;;;;12.98;3.30;;;;;;;;;;4986638;28;20066;-62
2023/03/31 01:34:23;;;;;;;7.22;2.85;;;;;;;;;;4979948;28;20049;-63
2023/03/31 01:36:49;;;;;;;6.95;3.28;;;;;;;;;;4985948;28;20042;-65
2023/03/31 01:39:31;;;;;;;9.48;4.07;;;;;;;;;;4985978;28;20120;-62
2023/03/31 01:42:03;;;;;;;10.68;4.00;;;;;;;;;;4983056;28;20046;-60
2023/03/31 01:44:30;;;;;;;9.48;3.08;;;;;;;;;;4986957;28;20473;-62
2023/03/31 01:46:56;;;;;;;5.80;3.30;;;;;;;;;;4985281;28;20054;-62
2023/03/31 01:49:23;;;;;;;15.05;3.08;;;;;;;;;;4984143;28;20065;-61
2023/03/31 01:52:08;;;;;;;6.22;3.20;;;;;;;;;;4984107;28;20129;-62
2023/03/31 01:54:44;;;;;;;5.82;3.08;;;;;;;;;;4985368;28;20127;-63
2023/03/31 01:57:10;;;;;;;8.43;2.92;;;;;;;;;;4984919;28;20450;-62
2023/03/31 02:00:04;;;;;;;9.70;3.67;;;;;;;;;;4984732;28;20168;-63
2023/03/31 02:02:32;;;;;;;7.93;3.40;;;;;;;;;;4982334;28;20050;-63
2023/03/31 02:05:02;;;;;;;11.05;3.40;;;;;;;;;;4986485;28;20042;-64
2023/03/31 02:07:37;;;;;;;9.10;3.65;;;;;;;;;;4984404;28;20046;-63
2023/03/31 02:10:07;;;;;;;14.10;3.08;;;;;;;;;;4985119;28;20070;-61
2023/03/31 02:12:34;;;;;;;8.13;3.03;;;;;;;;;;4985778;28;20049;-62
2023/03/31 02:15:03;;;;;;;4.93;2.65;;;;;;;;;;4986053;28;20038;-63
2023/03/31 02:17:31;;;;;;;7.82;3.60;;;;;;;;;;4985100;28;20526;-64
2023/03/31 02:19:59;;;;;;;8.10;3.30;;;;;;;;;;4984829;28;20049;-66
2023/03/31 02:22:27;;;;;;;9.63;4.82;;;;;;;;;;4985198;28;20038;-63
2023/03/31 02:24:54;;;;;;;9.52;3.90;;;;;;;;;;4985100;28;20402;-62
2023/03/31 02:27:47;;;;;;;9.00;3.67;;;;;;;;;;4974618;28;20245;-62
2023/03/31 02:30:14;;;;;;;7.45;3.85;;;;;;;;;;4978838;28;20049;-61
2023/03/31 02:32:42;;;;;;;10.13;3.67;;;;;;;;;;4984456;28;20049;-60
2023/03/31 02:35:17;;;;;;;11.93;3.92;;;;;;;;;;4985009;28;20046;-64
2023/03/31 02:37:45;;;;;;;9.85;3.40;;;;;;;;;;4984267;28;20560;-61
2023/03/31 02:40:15;;;;;;;9.85;3.47;;;;;;;;;;4983106;28;20061;-61
2023/03/31 02:42:43;;;;;;;10.73;3.95;;;;;;;;;;4985612;28;20042;-60
2023/03/31 02:45:27;;;;;;;11.63;4.72;;;;;;;;;;4985148;28;20031;-60
2023/03/31 02:47:55;;;;;;;7.70;4.18;;;;;;;;;;4984837;28;20491;-62
2023/03/31 02:50:24;;;;;;;9.50;4.53;;;;;;;;;;4982788;28;20545;-62
2023/03/31 02:53:13;;;;;;;13.95;4.10;;;;;;;;;;4986334;28;20081;-61
2023/03/31 02:55:46;;;;;;;10.18;3.88;;;;;;;;;;4984786;28;20042;-62
2023/03/31 02:58:33;;;;;;;9.32;4.20;;;;;;;;;;4985891;28;20053;-61
2023/03/31 03:01:18;;;;;;;7.53;4.03;;;;;;;;;;4976968;28;20423;-64
2023/03/31 03:03:57;;;;;;;8.65;4.15;;;;;;;;;;4988010;28;20073;-62
2023/03/31 03:06:36;;;;;;;11.13;4.80;;;;;;;;;;4988582;28;20062;-60
2023/03/31 03:09:15;;;;;;;9.90;4.78;;;;;;;;;;4969977;28;20133;-62
2023/03/31 03:11:45;;;;;;;8.90;4.57;;;;;;;;;;4989012;28;20105;-60
2023/03/31 03:14:30;;;;;;;9.82;4.65;;;;;;;;;;4990397;28;20050;-59
2023/03/31 03:17:02;;;;;;;14.20;4.60;;;;;;;;;;4988864;28;20077;-61
2023/03/31 03:19:29;;;;;;;9.38;4.13;;;;;;;;;;4990184;28;20061;-60
2023/03/31 03:21:56;;;;;;;13.23;4.70;;;;;;;;;;4988987;28;20038;-62
2023/03/31 03:24:22;;;;;;;9.20;4.65;;;;;;;;;;4977978;28;20569;-61
2023/03/31 03:26:49;;;;;;;7.78;4.32;;;;;;;;;;4987960;28;20034;-62
2023/03/31 03:29:16;;;;;;;9.00;4.63;;;;;;;;;;4989827;28;20558;-62
2023/03/31 03:31:42;;;;;;;11.63;5.28;;;;;;;;;;4988042;28;20049;-61
2023/03/31 03:34:09;;;;;;;12.65;5.53;;;;;;;;;;4988215;28;20406;-61
2023/03/31 03:36:37;;;;;;;10.10;5.15;;;;;;;;;;4988245;28;20945;-61
2023/03/31 03:39:04;;;;;;;10.40;4.72;;;;;;;;;;4986501;28;20042;-60
2023/03/31 03:41:32;;;;;;;9.23;5.43;;;;;;;;;;4986284;28;20048;-60
2023/03/31 03:43:59;;;;;;;11.18;5.40;;;;;;;;;;4987561;28;20168;-61
2023/03/31 03:46:26;;;;;;;12.48;5.45;;;;;;;;;;4986998;28;20038;-63
2023/03/31 03:48:53;;;;;;;16.23;5.55;;;;;;;;;;4989189;28;20570;-61
2023/03/31 03:51:20;;;;;;;11.60;5.38;;;;;;;;;;4986689;28;20040;-63
2023/03/31 03:53:46;;;;;;;10.05;5.30;;;;;;;;;;4987439;28;20048;-61
2023/03/31 03:56:13;;;;;;;10.05;5.80;;;;;;;;;;4989185;28;20080;-61
2023/03/31 03:58:40;;;;;;;13.27;6.13;;;;;;;;;;4987704;28;20490;-59
2023/03/31 04:01:06;;;;;;;11.73;5.78;;;;;;;;;;4987918;28;20050;-63
2023/03/31 04:03:33;;;;;;;13.13;6.13;;;;;;;;;;4986758;28;20071;-60
2023/03/31 04:05:59;;;;;;;14.43;6.15;;;;;;;;;;4987306;28;20053;-62
2023/03/31 04:08:26;;;;;;;12.35;6.60;;;;;;;;;;4986089;28;20053;-61
2023/03/31 04:10:53;;;;;;;15.23;6.93;;;;;;;;;;4969956;28;20030;-61
2023/03/31 04:13:19;;;;;;;19.48;8.02;;;;;;;;;;4986568;28;20734;-63
2023/03/31 04:15:46;;;;;;;18.83;8.20;;;;;;;;;;4986907;28;21020;-62
2023/03/31 04:18:22;;;;;;;16.95;7.95;;;;;;;;;;4986766;28;20058;-60
2023/03/31 04:20:53;;;;;;;14.63;7.88;;;;;;;;;;4986421;28;20437;-63
2023/03/31 04:23:25;;;;;;;17.02;7.90;;;;;;;;;;4988140;28;20076;-60
2023/03/31 04:25:52;;;;;;;14.68;7.60;;;;;;;;;;4986708;28;20034;-61
2023/03/31 04:28:18;;;;;;;17.17;7.57;;;;;;;;;;4973405;28;20066;-60
2023/03/31 04:30:46;;;;;;;15.15;8.55;;;;;;;;;;4985580;28;20492;-61
2023/03/31 04:33:14;;;;;;;16.02;7.97;;;;;;;;;;4985883;28;20046;-63
2023/03/31 04:35:51;;;;;;;14.48;8.05;;;;;;;;;;4978465;28;20117;-60
2023/03/31 04:38:22;;;;;;;17.10;8.25;;;;;;;;;;4986649;28;20054;-61
2023/03/31 04:40:50;;;;;;;16.05;7.93;;;;;;;;;;4985949;28;20439;-60
2023/03/31 04:43:17;;;;;;;14.20;8.32;;;;;;;;;;4987072;28;20507;-62
2023/03/31 04:45:44;;;;;;;16.27;8.75;;;;;;;;;;4987423;28;20096;-60
2023/03/31 04:48:11;;;;;;;17.92;8.65;;;;;;;;;;4988166;28;20164;-60
2023/03/31 04:50:37;;;;;;;18.05;8.55;;;;;;;;;;4986559;28;20045;-60
2023/03/31 04:53:05;;;;;;;16.92;8.52;;;;;;;;;;4986544;28;20128;-59
2023/03/31 04:55:31;;;;;;;15.50;8.18;;;;;;;;;;4985674;28;20042;-61
2023/03/31 04:57:58;;;;;;;16.50;8.60;;;;;;;;;;4987254;28;20627;-61
2023/03/31 05:00:25;;;;;;;16.75;9.10;;;;;;;;;;4986458;28;20125;-60
2023/03/31 05:02:52;;;;;;;17.75;9.68;;;;;;;;;;4986777;28;20042;-61
2023/03/31 05:05:19;;;;;;;17.00;8.38;;;;;;;;;;4987076;28;20093;-62
2023/03/31 05:07:45;;;;;;;19.40;9.63;;;;;;;;;;4986443;28;20189;-63
2023/03/31 05:10:12;;;;;;;15.32;8.68;;;;;;;;;;4985341;28;20683;-61
2023/03/31 05:12:39;;;;;;;21.98;9.07;;;;;;;;;;4986199;28;20081;-61
2023/03/31 05:15:07;;;;;;;18.02;9.00;;;;;;;;;;4986299;28;20062;-61
2023/03/31 05:17:34;;;;;;;17.30;9.02;;;;;;;;;;4985031;28;20045;-63
2023/03/31 05:20:04;;;;;;;19.55;9.75;;;;;;;;;;4984474;28;20049;-62
2023/03/31 05:22:33;;;;;;;16.15;7.68;;;;;;;;;;4986104;28;20057;-63
2023/03/31 05:25:00;;;;;;;18.92;9.40;;;;;;;;;;4987319;28;20041;-62
2023/03/31 05:27:26;;;;;;;18.63;8.98;;;;;;;;;;4985419;28;20427;-61
2023/03/31 05:29:53;;;;;;;21.83;9.00;;;;;;;;;;4984986;28;20038;-61
2023/03/31 05:32:20;;;;;;;19.92;9.93;;;;;;;;;;4985356;28;20051;-60
2023/03/31 05:34:47;;;;;;;19.70;10.38;;;;;;;;;;4986120;28;20034;-61
2023/03/31 05:37:14;;;;;;;23.42;10.60;;;;;;;;;;4986687;28;20654;-59
2023/03/31 05:39:40;;;;;;;18.13;9.48;;;;;;;;;;4984575;28;20050;-60
2023/03/31 05:42:07;;;;;;;24.13;10.15;;;;;;;;;;4986100;28;20042;-60
2023/03/31 05:44:34;;;;;;;21.73;10.15;;;;;;;;;;4986051;28;20037;-59
2023/03/31 05:47:01;;;;;;;18.13;10.43;;;;;;;;;;4986098;28;20046;-60
2023/03/31 05:49:28;;;;;;;19.35;9.70;;;;;;;;;;4983125;28;20727;-60
2023/03/31 05:51:55;;;;;;;20.65;9.82;;;;;;;;;;4969218;28;20080;-60
2023/03/31 05:54:21;;;;;;;18.25;10.73;;;;;;;;;;4986668;28;20026;-59
2023/03/31 05:56:48;;;;;;;20.13;10.10;;;;;;;;;;4986736;28;20049;-61
2023/03/31 05:59:15;;;;;;;21.05;10.15;;;;;;;;;;4986291;28;20078;-65
2023/03/31 06:01:42;;;;;;;21.30;10.98;;;;;;;;;;4993876;28;20086;-60
2023/03/31 06:04:08;;;;;;;19.15;10.05;;;;;;;;;;4993156;28;20040;-63
2023/03/31 06:06:36;;;;;;;20.35;11.45;;;;;;;;;;4991220;28;20049;-61
2023/03/31 06:09:03;;;;;;;22.80;11.60;;;;;;;;;;4987244;28;20042;-60
2023/03/31 06:11:30;;;;;;;25.27;12.23;;;;;;;;;;4986343;28;20148;-61
2023/03/31 06:13:57;;;;;;;24.95;11.00;;;;;;;;;;4986423;28;20435;-60
2023/03/31 06:16:23;;;;;;;20.05;10.25;;;;;;;;;;4984300;28;20041;-64
2023/03/31 06:18:52;;;;;;;25.23;11.93;;;;;;;;;;4986304;28;20042;-63
2023/03/31 06:21:20;;;;;;;21.25;10.75;;;;;;;;;;4985124;28;20054;-59
2023/03/31 06:23:47;;;;;;;25.00;11.23;;;;;;;;;;4984993;28;20495;-60
2023/03/31 06:26:15;;;;;;;26.58;11.98;;;;;;;;;;4985677;28;20050;-59
2023/03/31 06:28:43;;;;;;;24.55;11.40;;;;;;;;;;4984746;28;20034;-61
2023/03/31 06:31:13;;;;;;;22.65;11.27;;;;;;;;;;4987203;28;20050;-61
2023/03/31 06:33:41;;;;;;;22.83;11.23;;;;;;;;;;4986051;28;20090;-61
2023/03/31 06:36:08;;;;;;;21.40;11.15;;;;;;;;;;4985275;28;20176;-61
2023/03/31 06:38:35;;;;;;;27.33;12.02;;;;;;;;;;4987092;28;21857;-61
2023/03/31 06:41:02;;;;;;;26.20;12.05;;;;;;;;;;4988876;28;20157;-61
2023/03/31 06:43:29;;;;;;;27.70;13.68;;;;;;;;;;4988570;28;20046;-61
2023/03/31 06:45:55;;;;;;;22.60;11.63;;;;;;;;;;4989772;28;20054;-61
2023/03/31 06:48:23;;;;;;;25.00;12.30;;;;;;;;;;4988346;28;20540;-59
2023/03/31 06:50:50;;;;;;;28.85;12.68;;;;;;;;;;4988228;28;20471;-62
2023/03/31 06:53:17;;;;;;;23.52;11.50;;;;;;;;;;4988906;28;20092;-61
2023/03/31 06:55:43;;;;;;;24.27;12.80;;;;;;;;;;4990088;28;20044;-60
2023/03/31 06:58:11;;;;;;;28.08;13.38;;;;;;;;;;4989635;28;20397;-62
2023/03/31 07:00:38;;;;;;;26.73;13.75;;;;;;;;;;4986700;28;20145;-61
2023/03/31 07:03:05;;;;;;;25.85;12.45;;;;;;;;;;4989696;28;20141;-59
2023/03/31 07:05:32;;;;;;;28.65;13.10;;;;;;;;;;4988524;28;20045;-61
2023/03/31 07:07:59;;;;;;;32.63;12.57;;;;;;;;;;4987907;28;20038;-62
2023/03/31 07:10:27;;;;;;;29.65;13.70;;;;;;;;;;4987290;28;20050;-63
2023/03/31 07:12:54;;;;;;;26.33;13.50;;;;;;;;;;4988286;28;20038;-59
2023/03/31 07:15:20;;;;;;;27.55;12.02;;;;;;;;;;4988142;28;20129;-60
2023/03/31 07:17:49;;;;;;;28.35;12.88;;;;;;;;;;4988620;28;20134;-62
2023/03/31 07:20:17;;;;;;;27.77;14.23;;;;;;;;;;4987368;28;20073;-59
2023/03/31 07:22:45;;;;;;;28.13;12.90;;;;;;;;;;4989040;28;20688;-59
2023/03/31 07:25:12;;;;;;;27.65;13.13;;;;;;;;;;4988247;28;20048;-62
2023/03/31 07:27:39;;;;;;;28.92;12.88;;;;;;;;;;4987940;28;20050;-60
2023/03/31 07:30:06;;;;;;;29.00;12.68;;;;;;;;;;4988270;28;20046;-63
2023/03/31 07:32:34;;;;;;;28.48;12.55;;;;;;;;;;4989131;28;20034;-61
2023/03/31 07:35:00;;;;;;;24.90;12.05;;;;;;;;;;4988087;28;20058;-60
2023/03/31 07:37:27;;;;;;;31.33;13.70;;;;;;;;;;4987187;28;20081;-61
2023/03/31 07:40:04;;;;;;;26.40;11.60;;;;;;;;;;4987616;28;20151;-63
2023/03/31 07:42:31;;;;;;;24.38;11.85;;;;;;;;;;4974928;28;20042;-62
2023/03/31 07:44:57;;;;;;;25.25;11.88;;;;;;;;;;4988459;28;20049;-61
2023/03/31 07:47:26;;;;;;;21.48;10.80;;;;;;;;;;4987731;28;20665;-59
2023/03/31 07:49:53;;;;;;;28.38;11.40;;;;;;;;;;4985506;28;20566;-62
2023/03/31 07:52:20;;;;;;;27.65;13.15;;;;;;;;;;4987852;28;20042;-60
2023/03/31 07:54:47;;;;;;;29.73;12.02;;;;;;;;;;4988507;28;20030;-60
2023/03/31 07:57:15;;;;;;;28.75;11.85;;;;;;;;;;4987685;28;20034;-61
2023/03/31 07:59:42;;;;;;;25.50;11.55;;;;;;;;;;4986753;28;20076;-61
2023/03/31 08:02:11;;;;;;;26.92;12.68;;;;;;;;;;4989326;28;20054;-61
2023/03/31 08:04:40;;;;;;;31.38;11.98;;;;;;;;;;4988469;28;20050;-60
2023/03/31 08:07:25;;;;;;;24.45;11.25;;;;;;;;;;4929691;28;20121;-61
2023/03/31 08:09:51;;;;;;;27.83;12.02;;;;;;;;;;4930632;28;21903;-60
2023/03/31 08:12:18;;;;;;;24.85;11.45;;;;;;;;;;4929502;28;20788;-63
2023/03/31 08:14:44;;;;;;;27.33;12.40;;;;;;;;;;4930495;28;20058;-61
2023/03/31 08:17:11;;;;;;;30.35;13.63;;;;;;;;;;4931612;28;20134;-60
2023/03/31 08:19:38;;;;;;;28.38;11.20;;;;;;;;;;4930143;28;21141;-61
2023/03/31 08:22:04;;;;;;;28.67;12.90;;;;;;;;;;4931378;28;20043;-61
2023/03/31 08:24:31;;;;;;;25.52;11.85;;;;;;;;;;4929954;28;20039;-63
2023/03/31 08:26:58;;;;;;;25.48;11.68;;;;;;;;;;4930760;29;20118;-61
2023/03/31 08:29:24;;;;;;;24.65;11.77;;;;;;;;;;4929678;28;20042;-61
2023/03/31 08:31:51;;;;;;;28.83;12.35;;;;;;;;;;4929956;28;20099;-61
2023/03/31 08:34:18;;;;;;;22.48;11.15;;;;;;;;;;4926970;28;20070;-62
2023/03/31 08:36:44;;;;;;;22.45;11.50;;;;;;;;;;4930309;28;20204;-61
2023/03/31 08:39:11;;;;;;;22.40;10.45;;;;;;;;;;4929394;28;20051;-60
2023/03/31 08:44:24;;;;;;;26.42;11.50;;;;;;;;;;4248776;23;20062;-61
2023/03/31 08:46:53;;;;;;;21.98;11.13;;;;;;;;;;4957654;28;20122;-60
2023/03/31 08:49:20;;;;;;;19.17;10.45;;;;;;;;;;4958431;28;20101;-62
2023/03/31 08:51:49;;;;;;;20.95;10.18;;;;;;;;;;4957245;28;20094;-61
2023/03/31 08:54:18;;;;;;;26.10;11.75;;;;;;;;;;4957167;28;20042;-64
2023/03/31 08:56:47;;;;;;;25.80;11.88;;;;;;;;;;4957319;28;20035;-62
2023/03/31 08:59:27;;;;;;;27.70;10.88;;;;;;;;;;4957820;28;20062;-61
2023/03/31 09:02:00;;;;;;;22.58;10.57;;;;;;;;;;4957082;28;20042;-63
2023/03/31 09:04:33;;;;;;;23.00;12.10;;;;;;;;;;4956736;28;20047;-61
2023/03/31 09:07:02;;;;;;;24.08;11.23;;;;;;;;;;4961593;28;20163;-62
2023/03/31 09:09:37;;;;;;;22.55;11.68;;;;;;;;;;4963414;28;20722;-63
2023/03/31 09:12:10;;;;;;;24.35;11.20;;;;;;;;;;4959407;28;20125;-59
2023/03/31 09:14:42;;;;;;;23.42;12.07;;;;;;;;;;4958504;28;20471;-64
2023/03/31 09:17:15;;;;;;;26.27;11.57;;;;;;;;;;4960111;28;20082;-62
2023/03/31 09:19:44;;;;;;;25.17;10.82;;;;;;;;;;4957564;28;20069;-60
2023/03/31 09:22:17;;;;;;;25.50;10.43;;;;;;;;;;4958150;28;20403;-62
2023/03/31 09:24:56;;;;;;;27.50;12.00;;;;;;;;;;4959079;28;20046;-61
2023/03/31 09:27:24;;;;;;;26.40;11.10;;;;;;;;;;4957726;28;20887;-61
2023/03/31 09:30:04;;;;;;;20.60;10.88;;;;;;;;;;4958854;28;20043;-61
2023/03/31 09:32:32;;;;;;;22.33;10.82;;;;;;;;;;4957326;28;20054;-61
2023/03/31 09:35:02;;;;;;;23.67;11.40;;;;;;;;;;4957831;28;21119;-61
2023/03/31 09:37:32;;;;;;;24.27;10.98;;;;;;;;;;4957332;28;20051;-61
2023/03/31 09:40:00;;;;;;;24.25;11.40;;;;;;;;;;4957814;28;20054;-61
2023/03/31 09:42:27;;;;;;;21.83;10.63;;;;;;;;;;4956045;28;20043;-60
2023/03/31 09:44:54;;;;;;;26.13;10.18;;;;;;;;;;4957847;28;20043;-61
2023/03/31 09:47:28;;;;;;;26.40;10.93;;;;;;;;;;4957398;28;20507;-59
2023/03/31 09:49:55;;;;;;;22.42;10.15;;;;;;;;;;4957525;28;20042;-60
2023/03/31 09:52:32;;;;;;;23.77;11.00;;;;;;;;;;4955259;28;20391;-61
2023/03/31 09:55:00;;;;;;;22.88;9.93;;;;;;;;;;4957783;28;20035;-61
2023/03/31 09:57:31;;;;;;;21.48;11.07;;;;;;;;;;4956787;28;20042;-60
2023/03/31 10:00:15;;;;;;;25.08;10.60;;;;;;;;;;4956392;28;20082;-60
2023/03/31 10:02:51;;;;;;;27.27;12.25;;;;;;;;;;4956205;28;20043;-61
2023/03/31 10:05:21;;;;;;;23.23;10.80;;;;;;;;;;4956891;28;20047;-60
2023/03/31 10:07:48;;;;;;;29.25;12.90;;;;;;;;;;4956279;28;20141;-59
2023/03/31 10:10:34;;;;;;;32.85;13.55;;;;;;;;;;4956938;28;20531;-60
2023/03/31 10:13:03;;;;;;;22.80;10.80;;;;;;;;;;4955968;28;20451;-60
2023/03/31 10:15:30;;;;;;;26.05;11.55;;;;;;;;;;4956152;28;20130;-61
2023/03/31 10:17:58;;;;;;;25.88;11.57;;;;;;;;;;4957402;28;20051;-59
2023/03/31 10:20:38;;;;;;;25.75;11.43;;;;;;;;;;4955732;28;20046;-60
2023/03/31 10:23:12;;;;;;;26.10;11.60;;;;;;;;;;4956727;28;20047;-60
2023/03/31 10:25:40;;;;;;;22.95;12.05;;;;;;;;;;4955881;28;20047;-60
2023/03/31 10:28:26;;;;;;;25.05;11.25;;;;;;;;;;4966261;28;20034;-61
2023/03/31 10:30:54;;;;;;;30.55;12.45;;;;;;;;;;4967017;28;20506;-60
2023/03/31 10:33:25;;;;;;;30.08;12.95;;;;;;;;;;4966723;28;20042;-62
2023/03/31 10:35:57;;;;;;;31.63;13.18;;;;;;;;;;4967368;28;20494;-60
2023/03/31 10:38:26;;;;;;;26.23;12.80;;;;;;;;;;4965627;28;20078;-60
2023/03/31 10:40:55;;;;;;;35.40;14.13;;;;;;;;;;4966635;28;20042;-61
2023/03/31 10:43:26;;;;;;;33.35;13.88;;;;;;;;;;4967888;28;20925;-61
2023/03/31 10:45:55;;;;;;;30.80;13.57;;;;;;;;;;4967879;28;20077;-60
2023/03/31 10:48:27;;;;;;;41.17;15.25;;;;;;;;;;4967148;28;20049;-60
2023/03/31 10:50:55;;;;;;;34.05;14.60;;;;;;;;;;4965723;28;20596;-62
2023/03/31 10:53:22;;;;;;;40.97;14.30;;;;;;;;;;4966575;28;20546;-61
2023/03/31 10:55:56;;;;;;;29.95;14.98;;;;;;;;;;4967107;28;20185;-62
2023/03/31 10:58:29;;;;;;;35.00;15.70;;;;;;;;;;4965759;28;20050;-62
2023/03/31 11:01:13;;;;;;;34.47;15.60;;;;;;;;;;4966143;28;20164;-61
2023/03/31 11:03:53;;;;;;;40.00;16.27;;;;;;;;;;4966855;28;20038;-62
2023/03/31 11:06:24;;;;;;;34.20;14.02;;;;;;;;;;4959005;28;20047;-60
2023/03/31 11:08:51;;;;;;;25.85;13.02;;;;;;;;;;4957324;28;20054;-62
2023/03/31 11:11:24;;;;;;;29.10;14.65;;;;;;;;;;4954134;28;20064;-64
2023/03/31 11:14:09;;;;;;;28.05;14.77;;;;;;;;;;4940589;28;20047;-61
2023/03/31 11:16:39;;;;;;;33.50;14.05;;;;;;;;;;4975003;28;20038;-62
2023/03/31 11:19:24;;;;;;;30.45;13.52;;;;;;;;;;4976351;28;20073;-63
2023/03/31 11:22:01;;;;;;;34.45;13.50;;;;;;;;;;4975047;28;20073;-61
2023/03/31 11:24:43;;;;;;;34.03;13.35;;;;;;;;;;4979124;28;20046;-60
2023/03/31 11:27:28;;;;;;;31.30;13.82;;;;;;;;;;4979569;28;20366;-61
2023/03/31 11:29:55;;;;;;;33.55;13.63;;;;;;;;;;4977298;28;20050;-61
2023/03/31 11:32:30;;;;;;;34.03;14.38;;;;;;;;;;4978512;28;20149;-61
2023/03/31 11:35:15;;;;;;;30.65;14.70;;;;;;;;;;4978278;28;20034;-62
2023/03/31 11:37:51;;;;;;;33.45;14.65;;;;;;;;;;4978642;28;20042;-60
2023/03/31 11:40:32;;;;;;;31.60;14.65;;;;;;;;;;4979091;28;20084;-62
2023/03/31 11:43:12;;;;;;;41.90;16.00;;;;;;;;;;4979620;28;20072;-63
2023/03/31 11:46:05;;;;;;;34.25;14.65;;;;;;;;;;4978329;28;20048;-62
2023/03/31 11:48:50;;;;;;;32.40;14.70;;;;;;;;;;4949826;28;20065;-62
2023/03/31 11:51:21;;;;;;;41.08;15.23;;;;;;;;;;4978694;28;20038;-62
2023/03/31 11:53:49;;;;;;;36.95;17.00;;;;;;;;;;4978688;28;20133;-62
2023/03/31 11:56:16;;;;;;;36.80;16.17;;;;;;;;;;4978639;28;20049;-61
2023/03/31 11:58:56;;;;;;;43.10;17.10;;;;;;;;;;4966786;28;20167;-61
2023/03/31 12:01:49;;;;;;;39.97;16.77;;;;;;;;;;4973759;28;20042;-63
2023/03/31 12:04:33;;;;;;;38.70;16.30;;;;;;;;;;4948358;28;20438;-62
2023/03/31 12:07:21;;;;;;;34.00;15.70;;;;;;;;;;4977321;28;20611;-61
2023/03/31 12:09:47;;;;;;;48.38;15.80;;;;;;;;;;4976834;28;20427;-63
2023/03/31 12:12:22;;;;;;;40.90;17.23;;;;;;;;;;4977925;28;20104;-61
2023/03/31 12:14:53;;;;;;;36.38;17.23;;;;;;;;;;4977291;28;20038;-61
2023/03/31 12:17:22;;;;;;;38.35;16.83;;;;;;;;;;4977310;28;20039;-62
2023/03/31 12:19:49;;;;;;;35.42;15.95;;;;;;;;;;4977425;28;20054;-61
2023/03/31 12:22:22;;;;;;;34.58;16.10;;;;;;;;;;4978109;28;20069;-64
2023/03/31 12:24:48;;;;;;;43.15;16.02;;;;;;;;;;4977472;28;20058;-63
2023/03/31 12:27:15;;;;;;;33.10;16.90;;;;;;;;;;4977838;28;20117;-64
2023/03/31 12:29:45;;;;;;;43.75;17.55;;;;;;;;;;4976558;28;20034;-61
2023/03/31 12:32:23;;;;;;;36.55;16.38;;;;;;;;;;4977921;28;20539;-61
2023/03/31 12:35:12;;;;;;;35.10;15.32;;;;;;;;;;4976047;28;20410;-61
2023/03/31 12:37:51;;;;;;;36.55;15.60;;;;;;;;;;4965324;28;20046;-59
2023/03/31 12:40:31;;;;;;;29.08;15.07;;;;;;;;;;4976407;28;20054;-62
2023/03/31 12:43:09;;;;;;;40.00;15.32;;;;;;;;;;4958138;28;20134;-64
2023/03/31 12:45:39;;;;;;;39.03;15.77;;;;;;;;;;4958079;28;20046;-60
2023/03/31 12:48:27;;;;;;;38.85;16.02;;;;;;;;;;4957891;28;20077;-58
2023/03/31 12:50:58;;;;;;;41.03;16.38;;;;;;;;;;4956894;28;20131;-62
2023/03/31 12:53:26;;;;;;;;;;;;;;;;;;4958688;28;20057;-62
2023/03/31 12:55:57;;;;;;;36.05;14.57;;;;;;;;;;4958546;28;19977;-60
2023/03/31 12:58:25;;;;;;;33.05;14.60;;;;;;;;;;4957105;28;20066;-61
2023/03/31 13:01:05;;;;;;;30.33;14.80;;;;;;;;;;4957502;28;20043;-61
2023/03/31 13:03:34;;;;;;;43.97;16.33;;;;;;;;;;4957539;28;20116;-60
2023/03/31 13:06:02;;;;;;;35.55;15.82;;;;;;;;;;4958520;28;20138;-60
2023/03/31 13:08:47;;;;;;;42.42;16.33;;;;;;;;;;4957511;28;20074;-62
2023/03/31 13:11:14;;;;;;;35.47;15.77;;;;;;;;;;4956460;28;20105;-60
2023/03/31 13:14:01;;;;;;;37.22;15.57;;;;;;;;;;4957610;28;20039;-61
2023/03/31 13:16:31;;;;;;;33.05;14.57;;;;;;;;;;4955814;28;20681;-62
2023/03/31 13:18:58;;;;;;;39.88;16.30;;;;;;;;;;4955653;28;20797;-61
2023/03/31 13:21:25;;;;;;;37.70;14.98;;;;;;;;;;4954792;28;20042;-59
2023/03/31 13:23:52;;;;;;;40.72;16.00;;;;;;;;;;4956677;28;20050;-66
2023/03/31 13:26:34;;;;;;;39.63;14.95;;;;;;;;;;4956797;28;20043;-66
2023/03/31 13:29:11;;;;;;;40.78;15.85;;;;;;;;;;4956493;28;20030;-63
2023/03/31 13:31:56;;;;;;;49.10;17.90;;;;;;;;;;4955678;28;20038;-61
2023/03/31 13:34:23;;;;;;;29.88;14.27;;;;;;;;;;4957134;28;20046;-60
2023/03/31 13:36:55;;;;;;;36.17;13.93;;;;;;;;;;4956941;28;20046;-62
2023/03/31 13:39:41;;;;;;;35.60;14.52;;;;;;;;;;4956099;28;20139;-62
2023/03/31 13:42:26;;;;;;;33.40;15.82;;;;;;;;;;4957193;28;20046;-64
2023/03/31 13:45:09;;;;;;;45.35;15.75;;;;;;;;;;4956726;28;20072;-62
2023/03/31 13:47:56;;;;;;;38.88;15.32;;;;;;;;;;4955201;28;20046;-58
2023/03/31 13:50:41;;;;;;;42.05;16.52;;;;;;;;;;4955048;28;20034;-62
2023/03/31 13:53:30;;;;;;;43.50;15.70;;;;;;;;;;4952657;28;20903;-61
2023/03/31 13:55:56;;;;;;;43.60;16.33;;;;;;;;;;4955548;28;20038;-62
2023/03/31 13:58:42;;;;;;;45.55;17.33;;;;;;;;;;4954698;28;20137;-61
2023/03/31 14:01:30;;;;;;;42.22;17.38;;;;;;;;;;4955536;28;20149;-59
2023/03/31 14:04:09;;;;;;;43.85;16.50;;;;;;;;;;4955869;28;20076;-62
2023/03/31 14:06:38;;;;;;;43.58;15.80;;;;;;;;;;4956144;28;20633;-64
2023/03/31 14:09:10;;;;;;;47.22;16.67;;;;;;;;;;4956445;28;20129;-61
2023/03/31 14:11:36;;;;;;;39.10;16.23;;;;;;;;;;4953858;28;20066;-60
2023/03/31 14:14:03;;;;;;;46.75;16.73;;;;;;;;;;4956575;28;20121;-59
2023/03/31 14:16:32;;;;;;;36.45;15.38;;;;;;;;;;4955295;28;20069;-62
2023/03/31 14:19:04;;;;;;;43.95;16.23;;;;;;;;;;4955745;28;20433;-61
2023/03/31 14:21:45;;;;;;;32.72;14.15;;;;;;;;;;4955286;28;20587;-61
2023/03/31 14:24:17;;;;;;;32.72;14.98;;;;;;;;;;4970881;28;20082;-63
2023/03/31 14:26:58;;;;;;;38.60;14.48;;;;;;;;;;4956516;28;20522;-60
2023/03/31 14:29:43;;;;;;;30.48;14.25;;;;;;;;;;4954218;28;20173;-59
2023/03/31 14:32:10;;;;;;;30.35;13.80;;;;;;;;;;4956470;28;20467;-60
2023/03/31 14:34:38;;;;;;;32.40;14.88;;;;;;;;;;4955536;28;20500;-60
2023/03/31 14:37:07;;;;;;;34.00;14.18;;;;;;;;;;4956190;28;20082;-62
2023/03/31 14:39:40;;;;;;;33.95;14.57;;;;;;;;;;4954960;28;20066;-60
2023/03/31 14:42:11;;;;;;;26.00;11.27;;;;;;;;;;4955173;28;20787;-59
2023/03/31 14:44:38;;;;;;;41.47;14.77;;;;;;;;;;4953287;28;20050;-59
2023/03/31 14:47:05;;;;;;;29.33;13.73;;;;;;;;;;4955430;28;20061;-59
2023/03/31 14:49:37;;;;;;;31.42;13.13;;;;;;;;;;4953620;28;20094;-61